KSNA 161453Z 00000KT 8SM SCT250 18/13 A2994 RMK AO2 SLP137 T01830133 53008
 
Date: 15Z 16 OCT 19

K9L2 161458Z AUTO 00000KT 8SM CLR 09/M12 A3008 RMK AO2 SLP178 T00921116 $
KAAT 161455Z AUTO 00000KT 7SM CLR M02/M07 A3006 RMK AO2 SLP179 T10221067
     56004
KACV 161453Z AUTO 11007KT 10SM CLR 09/07 A2997 RMK AO2 SLP156 T00940067
     58008
KAJO 161456Z AUTO 10SM CLR 13/08 A2998 RMK AO2 SLP147 T01280083 $
KAPC 161454Z 00000KT 10SM CLR 04/04 A3002 RMK AO2 SLP157 T00440044 53004
KAUN 161515Z AUTO 11005KT 10SM CLR 16/M03 A3002 RMK A01
KAVX 161451Z AUTO 05005KT 10SM CLR 26/M03 A3000 RMK AO2 SLP129 T02611028
     53006
KBAB 161458Z AUTO 11003KT 10SM CLR 07/01 A2997 RMK AO2 SLP152 T00690012
     55000 $
KBAN 161452Z AUTO 00000KT 6SM HZ CLR M03/M13 A3020 RMK AO2 SLP215 T10331133
     56006 FZRANO $
KBFL 161454Z 00000KT 8SM CLR 14/03 A3000 RMK AO2 SLP154 T01390028 55000
KBIH 161456Z AUTO 00000KT 10SM CLR 04/M11 A3016 RMK AO2 SLP195 T00441111
     51002
KBLH 161452Z AUTO 00000KT 10SM CLR 20/00 A2996 RMK AO2 SLP139 T02000000
     53010
KBLU 161452Z AUTO 15004KT 10SM CLR 13/M09 A3016 RMK AO2 SLP155 T01281089
     55002
KBUR 161453Z 29003KT 10SM CLR 18/04 A2996 RMK AO2 SLP134 T01780039 51013 $
KBYS 161458Z AUTO 00000KT 8SM CLR 11/M11 A3006 RMK AO2 SLP166 T01091115
     53003 $
METAR KCCB 161515Z AUTO 06005KT 10SM CLR 23/03 A2999 RMK AO2
KCCR 161453Z 00000KT 10SM CLR 09/06 A3001 RMK AO2 SLP147 T00940056 51003
KCEC 161456Z AUTO 16012G20KT 10SM CLR 14/08 A2994 RMK AO2 SLP139 T01440083
     58016
KCMA 161455Z 05003KT 10SM CLR 15/06 A2994 RMK AO2 SLP147 T01500056 51009
KCNO 161453Z 02003KT 10SM FEW200 14/09 A2998 RMK AO2 SLP149 T01440089
     53006
KCQT 161452Z AUTO 00000KT 10SM CLR 19/08 A2994 RMK AO2 SLP137 T01890078
     51011
KCRQ 161453Z 00000KT 10SM CLR 18/10 A2992 RMK AO2 SLP129 T01780100 53003
KCVH 161520Z AUTO 00000KT 10SM 08/04 A3003 RMK A01
KCZZ 161452Z AUTO 05005KT 19/04 A3000 RMK AO1 SLP135 T01890039 53005
KDAG 161450Z AUTO 28008KT 10SM CLR 16/M01 A3005 RMK AO2 SLP159 T01611011
     53004
METAR KDLO 161515Z AUTO 00000KT 10SM 09/03 A3000 RMK AO2 T00910025
KDVO 161515Z AUTO 00000KT 3SM BR OVC003 08/08 A3002 RMK AO2
KE16 161515Z AUTO 34004KT 10SM BKN004 09/07 A3004 RMK AO2 PWINO PNO
KEDU 161515Z AUTO 00000KT 10SM CLR 08/03 A3000 RMK AO1
KEDW 161455Z 00000KT 80SM BKN250 10/M13 A3007 RMK AO2A SLP174 WND DATA
     ESTMD T00961131 53007 $
KEED 161456Z AUTO 21004KT 10SM CLR 21/M02 A3001 RMK AO2 SLP138 T02061022
     53014
KEMT 161445Z 35003KT 10SM CLR 16/07 A2995
KF70 161515Z AUTO 02003KT 10SM CLR 16/06 A3001 RMK AO1
KFAT 161453Z 00000KT 6SM HZ SCT150 BKN200 OVC250 13/05 A3001 RMK AO2 SLP160
     MTNS OBSC HZ DSNT N-E-SE T01280050 53001
KFCH 161515Z AUTO 00000KT 6SM HZ 12/07 A3002 RMK A01
KFOT 161515Z AUTO 14009KT 10SM CLR 06/05 A2999 RMK AO1
KFUL 161453Z 00000KT 10SM CLR 17/09 A2994 RMK AO2 SLP136 T01720094 53008
METAR KGXA 161458Z AUTO 16003KT 10SM CLR 14/M03 A3007 RMK AO2 SLP167 WND
     DATA ESTMD T01391029 51005
KHAF 161520Z AUTO 00000KT 8SM CLR 08/07 A3003 RMK AO2
KHHR 161453Z AUTO 27003KT 9SM CLR 17/12 A2995 RMK AO2 SLP139 T01720122
     51010
KHJO 161453Z AUTO 00000KT 4SM HZ CLR 11/06 A3001 RMK AO2 SLP164 T01060061
     53003
KHWD 161510Z 00000KT 9SM BKN012 11/08 A3002 RMK AO2 T01060083
KIPL 161453Z AUTO 27004KT 10SM CLR 19/07 A2990 RMK AO2 SLP125 T01890072
     53008
KIZA 161515Z AUTO 00000KT 10SM CLR 07/05 A2997 RMK AO2
KL18 161515Z AUTO 00000KT 10SM CLR 20/07 A2996 RMK AO2
KL35 161515Z AUTO 00000KT 10SM CLR 03/M04 A3027 RMK AO2
KLAX 161453Z VRB03KT 10SM FEW009 FEW160 SCT250 19/13 A2994 RMK AO2 SLP136
     T01890128 51009
KLGB 161509Z 00000KT 3SM HZ SCT002 18/15 A2994 RMK AO2 T01780150
KLHM 161515Z AUTO 00000KT 10SM CLR 08/05 A2998 RMK AO1
KLPC 161506Z AUTO 07006KT 10SM SCT003 09/09 A2997 RMK AO2
KLVK 161453Z 00000KT 9SM CLR 09/04 A3001 RMK AO2 SLP160 T00890044 51004
KMAE 161453Z AUTO 00000KT 9SM CLR 10/04 A3001 RMK AO2 SLP160 T01000039
     55001
KMCC 161525Z AUTO 12005KT 10SM CLR 12/05 A3001 RMK AO2
KMCE 161453Z AUTO 00000KT 7SM CLR 08/04 A2999 RMK AO2 SLP155 T00780039
     51001
KMER 161445Z 00000KT 10SM SKC 07/06 A3000
KMHR 161455Z 11003KT 10SM SKC 08/04 A2999
KMHS 161456Z AUTO 00000KT 8SM CLR 02/M02 A3003 RMK AO2 SLP184 T00221022
     55002 $
KMHV 161500Z AUTO 00000KT 5SM HZ CLR 16/M05 A3009 RMK A01
KMMH 161515Z AUTO 00000KT 10SM CLR 00/M13 A3029 RMK AO2 T10051131
KMOD 161453Z 00000KT 9SM CLR 08/06 A2999 RMK AO2 SLP155 T00830061 53003
KMRY 161517Z 11004KT 1/2SM FG VV002 09/08 A3001 RMK AO2 T00940078 RVRNO $
KMYF 161453Z 14003KT 10SM CLR 20/09 A2994 RMK AO2 SLP135 T02000089 53009
KMYV 161453Z AUTO 00000KT 10SM CLR 08/04 A2999 RMK AO2 SLP160 T00830039
     53001
KNFG 161455Z 00000KT 10SM FEW250 12/09 A2993 RMK AO2 SLP133 T01220094
     53002
KNID 161456Z 24003KT 10SM BKN250 12/M10 A3008 RMK AO2 SLP184 T01171100
     53007 $
KNKX 161455Z 11004KT 10SM CLR 20/09 A2994 RMK AO2 SLP132 T02000094 53008
KNLC 161456Z COR 23003KT 6SM HZ BKN170 BKN230 09/M02 A3001 RMK SLP162 RH/49
     T00891022 53001
KNRS 161456Z 01006KT 7SM FEW250 19/12 A2994 RMK AO2 SLP139 T01940122 53006
     $
KNSI 161456Z COR 29007KT 10SM FEW150 SCT260 13/08 A2994 RMK AO2 SLP133
     T01280078 57007 $
KNTD 161457Z 02004KT 10SM SCT250 14/09 A2995 RMK AO2 SLP141 T01390089 51005
     $
KNUC 161456Z 34003KT 10SM FEW028 SCT250 16/13 A2995 RMK AO2 SLP140
     T01610133 51002 $
KNUQ 161456Z A3003 RMK AO2 SLP173 53003 PWINO $
KNXP 161456Z AUTO 32006KT 10SM CLR 16/M02 A3012 RMK AO2 SLP171 T01561017
     53007 $
KNZY 161452Z 00000KT 8SM FEW010 FEW250 17/15 A2993 RMK AO2 SLP135 T01720150
     53010
KO22 161515Z AUTO 00000KT 10SM CLR 10/M01 A3005 RMK A01
KO69 161515Z AUTO 00000KT 1/4SM FG OVC002 07/07 A3003 RMK A01
KO86 161510Z AUTO 00000KT 10SM CLR 03/M01 A3006 RMK AO1
KOAK 161453Z 00000KT 10SM FEW010 BKN200 10/08 A3003 RMK AO2 SLP168
     T01000083 53001
KOKB 161452Z AUTO VRB04KT 10SM CLR 17/11 A2993 RMK AO2 SLP133 T01670106
     53005
KONT 161453Z 04003KT 10SM SCT250 21/03 A2997 RMK AO2 SLP136 T02060033 53007
     $
KOVE 161453Z AUTO 30003KT 10SM CLR 09/04 A3000 RMK AO2 SLP161 T00890039
     51002
KOXR 161451Z 00000KT 10SM CLR 13/09 A2994 RMK AO2 SLP138 T01330089 52007
KPAO 161447Z 00000KT 10SM SCT0010 SCT060 BKN120 09/07 A3002
KPMD 161453Z 00000KT 10SM CLR 11/M04 A3009 RMK AO2 SLP178 T01111039 51007
     $
KPRB 161453Z AUTO 00000KT 10SM CLR 07/01 A3002 RMK AO2 SLP164 T00670006
     53003
KPSP 161453Z 33007KT 10SM CLR 22/02 A2996 RMK AO2 SLP143 T02220017 53008
KPTV 161456Z AUTO 00000KT 10SM CLR 12/03 A3000 RMK AO2 SLP159 T01170028
     55006
KRAL 161453Z AUTO 04007KT 10SM CLR 17/04 A2997 RMK AO2 SLP136 T01720044
     51007
KRBL 161454Z AUTO 34004KT 10SM CLR 08/M01 A3000 RMK AO2 SLP157 T00831006
     53002
KRDD 161453Z 00000KT 10SM CLR 06/01 A2999 RMK AO2 SLP155 T00560006 53002 $
KRHV 161450Z 00000KT 7SM SCT005 OVC008 12/08 A3003
KRIV 161458Z AUTO 00000KT 7SM CLR 15/06 A3000 RMK AO2 SLP151 T01460062
     53005
KRNM 161453Z 10003KT 10SM CLR 16/04 A2998 RMK AO2 SLP143 T01610044 53006
KSAC 161453Z 14003KT 5SM BR CLR 10/08 A2999 RMK AO2 SLP156 T01000078 53004
KSAN 161451Z 29004KT 8SM FEW008 FEW250 17/15 A2995 RMK AO2 SLP142 T01720150
     53011
KSBA 161453Z 07005KT 6SM BR CLR 14/12 A2993 RMK AO2 SLP136 T01440122 51009
KSBD 161445Z 00000KT 10SM SKC 18/00 A2999
KSBP 161456Z 10006KT M1/4SM FG VV002 08/08 A2997 RMK AO2 SLP148 T00830083
     55002 $
KSCK 161455Z 00000KT 7SM CLR 10/05 A2999 RMK AO2 SLP155 T01000050 51003
KSDB 161453Z AUTO 09011KT 10SM CLR 19/M02 A3015 RMK AO2 SLP161 T01891017
     53003
KSDM 161453Z 16005KT 9SM CLR 19/08 A2994 RMK AO2 SLP135 T01890083 53011
KSEE 161447Z 00000KT 10SM SKC 16/11 A2995
KSFO 161456Z 30005KT 10SM FEW009 BKN200 13/10 A3001 RMK AO2 SLP162
     T01280100 56001
KSIY 161453Z AUTO 05008KT 10SM CLR 03/M04 A2998 RMK AO2 SLP162 T00281039
     50000
KSJC 161453Z 00000KT 7SM FEW001 SCT013 BKN100 11/09 A3002 RMK AO2 SLP165
     T01060089 50003
SPECI KSLI 161518Z 00000KT 1/8SM R22L/0800FT FG BKN002 16/15 A2994 RMK AO2A
     SLP142 WND DATA ESTMD
KSMF 161453Z 09003KT 10SM BKN200 08/06 A2998 RMK AO2 SLP152 T00830056
     50003
KSMO 161451Z 08004KT 10SM CLR 17/09 A2994 RMK AO2 SLP138 T01670094 51010
KSMX 161456Z 00000KT 3/4SM R12/1200V4000FT BR BKN001 10/08 A2997 RMK AO2
     T01000083
KSNA 161453Z 00000KT 8SM SCT250 18/13 A2994 RMK AO2 SLP137 T01830133 53008
KSNS 161501Z 00000KT 2 1/2SM BR OVC003 09/08 A3001 RMK AO2 T00890083
KSQL 161447Z 00000KT 10SM SKC 10/08 A3003
KSTS 161500Z 00000KT 1SM BCFG BKN002 03/03 A3002 RMK AO2 T00330033
KSVE 161515Z AUTO 31005KT 10SM CLR 03/M05 A3010 RMK AO2
KSUU 161458Z 22008KT 10SM CLR 10/07 A2999 RMK AO2A SLP162 T00990070 50005$
METAR KTCY 161515Z AUTO 19003KT 10SM CLR 13/M00 A3000 RMK A01
KTOA 161447Z 00000KT 10SM SKC 15/10 A2994
KTRK 161445Z 00000KT 10SM BKN180 M04/M08 A3018
KTRM 161452Z AUTO 34005KT 10SM CLR 19/05 A2991 RMK AO2 SLP128 T01940050
     53009
KTSP 161515Z AUTO 13003KT 10SM CLR 10/M04 A3015 RMK AO2
KTVL 161453Z AUTO 00000KT 10SM CLR M02/M07 A3018 RMK AO2 SLP212 T10221067
     58006
KUKI 161456Z AUTO 00000KT 10SM CLR 06/02 A3003 RMK AO2 SLP165 T00560017
     50001
KVBG 161458Z 08005KT 10SM CLR 09/09 A2996 RMK AO2A SLP149 T00880085 55005
     $
KVCB 161453Z AUTO 00000KT 10SM CLR 07/03 A3000 RMK AO2 SLP158 T00720033
     51004
KVCV 161449Z 15005KT 10SM SKC A3010
KVIS 161456Z AUTO 00000KT 9SM CLR 11/06 A3001 RMK AO2 SLP168 T01060056
     55003
KVNY 161451Z 32003KT 10SM CLR 16/05 A2996 RMK AO2 SLP139 T01610050 53011
KWHP 161500Z 00000KT 10SM SKC 19/00 A3001
KWJF 161456Z 26003KT CLR 08/M07 A3009 RMK AO2 SLP191 T00781072 53009 $
KWVI 161500Z AUTO 07003KT M1/4SM FG VV002 09/08 A3002 RMK AO2 T00890083